Time;durP1;ratioP1;P1;durP2;ratioP2;P2;SDS_P1;SDS_P2;PMS_P1;PMS_P2;Temp;Humidity;BMP_temperature;BMP_pressure;BME280_temperature;BME280_humidity;BME280_pressure;Samples;Min_cycle;Max_cycle;Signal;HPM_P1;HPM_P2
2021/05/06 00:34:13;;;;;;;2.00;1.40;;;;;;;12.13;56.90;98577.92;1782256;78;21153;-62
2021/05/06 00:36:41;;;;;;;2.50;1.60;;;;;;;12.11;56.83;98578.05;1783984;77;21564;-61
2021/05/06 00:39:17;;;;;;;2.02;1.25;;;;;;;12.07;57.01;98574.77;1781638;79;21643;-62
2021/05/06 00:58:12;;;;;;;2.98;1.60;;;;;;;12.03;56.47;98547.39;1781278;79;21726;-64
2021/05/06 01:05:35;;;;;;;2.92;1.65;;;;;;;11.99;56.21;98553.33;1780560;79;21562;-61
2021/05/06 01:08:04;;;;;;;2.10;1.53;;;;;;;11.98;56.25;98546.84;1795749;78;21480;-60
2021/05/06 01:13:20;;;;;;;2.30;1.40;;;;;;;11.87;56.51;98537.00;1781950;77;21545;-61
2021/05/06 01:15:44;;;;;;;6.90;1.52;;;;;;;11.87;56.16;98538.32;1792151;78;21143;-61
2021/05/06 01:18:12;;;;;;;;;;;;;;;11.84;56.15;98534.56;1791831;79;21569;-61
2021/05/06 01:20:50;;;;;;;3.10;1.40;;;;;;;11.75;56.33;98529.89;1779848;77;23405;-60
2021/05/06 01:23:18;;;;;;;1.82;1.50;;;;;;;11.73;56.18;98542.31;1780421;77;21625;-61
2021/05/06 01:26:07;;;;;;;3.05;1.70;;;;;;;11.76;56.24;98539.49;1793284;79;21635;-62
2021/05/06 01:28:31;;;;;;;4.37;1.80;;;;;;;11.75;55.99;98541.26;1720286;81;21119;-63
2021/05/06 01:31:12;;;;;;;3.42;1.42;;;;;;;11.81;55.65;98542.65;1736947;81;21584;-61
2021/05/06 01:33:43;;;;;;;2.58;1.30;;;;;;;11.83;55.73;98544.26;1725773;81;21585;-58
2021/05/06 01:36:14;;;;;;;1.55;1.20;;;;;;;11.81;55.66;98530.80;1714250;81;21875;-58
2021/05/06 01:39:11;;;;;;;1.77;1.30;;;;;;;11.85;55.46;98532.31;1710407;81;21651;-63
2021/05/06 01:41:52;;;;;;;1.75;1.22;;;;;;;11.84;55.50;98527.97;1699957;83;21513;-59
2021/05/06 01:49:34;;;;;;;4.40;1.10;;;;;;;11.77;55.63;98522.73;1737973;80;21876;-60
2021/05/06 01:57:45;;;;;;;2.40;1.52;;;;;;;11.80;55.50;98512.01;1737046;80;21477;-60
2021/05/06 02:00:29;;;;;;;2.70;1.10;;;;;;;11.79;55.70;98499.77;1805659;76;23177;-58
2021/05/06 02:02:59;;;;;;;3.40;1.90;;;;;;;11.69;56.08;98495.11;1775509;78;21150;-60
2021/05/06 02:05:29;;;;;;;2.33;1.57;;;;;;;11.71;55.90;98490.23;1771302;79;21769;-60
2021/05/06 02:07:57;;;;;;;3.77;1.80;;;;;;;11.67;56.11;98490.90;1775955;78;21533;-60
2021/05/06 02:10:27;;;;;;;2.08;1.55;;;;;;;11.65;56.14;98487.05;1774891;79;21596;-60
2021/05/06 02:12:59;;;;;;;3.58;1.70;;;;;;;11.60;56.22;98479.94;1783805;78;21641;-60
2021/05/06 02:15:32;;;;;;;3.17;1.40;;;;;;;11.57;56.70;98479.30;1770614;79;21608;-59
2021/05/06 02:18:00;;;;;;;2.15;1.40;;;;;;;11.50;56.79;98487.57;1747614;79;22044;-60
2021/05/06 02:20:28;;;;;;;3.40;1.60;;;;;;;11.45;56.85;98491.00;1772864;79;21643;-60
2021/05/06 02:22:56;;;;;;;;;;;;;;;11.43;56.95;98494.20;1772284;78;21579;-60
2021/05/06 02:25:24;;;;;;;2.75;1.72;;;;;;;11.35;57.43;98500.89;1770052;79;20479;-59
2021/05/06 02:27:53;;;;;;;2.70;1.47;;;;;;;11.32;57.25;98495.81;1771503;79;21560;-59
2021/05/06 02:30:23;;;;;;;1.72;1.60;;;;;;;11.25;57.68;98494.06;1773652;78;22441;-59
2021/05/06 02:32:51;;;;;;;3.37;1.77;;;;;;;11.19;58.09;98496.61;1770542;79;21627;-59
2021/05/06 02:35:20;;;;;;;2.33;1.50;;;;;;;11.15;58.33;98507.41;1775076;78;21494;-58
2021/05/06 02:37:47;;;;;;;3.58;1.70;;;;;;;11.11;58.19;98508.07;1772527;77;21498;-59
2021/05/06 02:40:18;;;;;;;3.87;1.47;;;;;;;11.08;58.47;98505.66;1771421;79;21946;-59
2021/05/06 02:42:46;;;;;;;2.15;1.40;;;;;;;11.07;58.52;98518.41;1771737;78;21992;-59
2021/05/06 02:45:15;;;;;;;1.98;1.17;;;;;;;11.04;58.66;98506.31;1769190;78;21635;-58
2021/05/06 02:47:43;;;;;;;3.15;1.55;;;;;;;10.99;58.78;98517.58;1769750;79;21564;-59
2021/05/06 02:50:14;;;;;;;3.02;1.62;;;;;;;10.96;58.92;98500.67;1772830;79;21623;-59
2021/05/06 02:55:36;;;;;;;4.97;1.62;;;;;;;10.95;59.85;98506.05;1811518;77;23164;-58
2021/05/06 02:58:00;;;;;;;5.10;1.60;;;;;;;10.89;59.40;98510.74;1786275;77;21643;-60
2021/05/06 03:03:12;;;;;;;4.80;1.60;;;;;;;10.88;59.73;98505.09;1799673;77;21580;-59
2021/05/06 03:05:41;;;;;;;4.92;1.80;;;;;;;10.88;59.77;98509.52;1768744;79;21536;-59
2021/05/06 03:08:19;;;;;;;1.52;1.32;;;;;;;10.87;60.19;98497.33;1785757;79;21589;-60
2021/05/06 03:10:57;;;;;;;1.60;1.37;;;;;;;10.86;60.25;98510.92;1781488;78;21524;-59
2021/05/06 03:23:57;;;;;;;2.02;1.45;;;;;;;11.12;59.96;98487.41;1782753;79;21166;-59
2021/05/06 03:26:25;;;;;;;2.62;1.72;;;;;;;11.16;59.94;98502.05;1788264;77;21975;-60
2021/05/06 03:29:00;;;;;;;4.90;1.70;;;;;;;11.18;59.87;98495.39;1783052;78;21650;-60
2021/05/06 03:51:07;;;;;;;3.45;1.55;;;;;;;11.12;60.20;98531.30;1793519;77;21531;-61
2021/05/06 04:15:35;;;;;;;1.82;1.60;;;;;;;11.50;59.86;98599.44;1711177;81;21567;-60
2021/05/06 04:18:06;;;;;;;3.27;1.67;;;;;;;11.56;59.37;98595.58;1705439;82;21122;-61
2021/05/06 04:26:13;;;;;;;3.15;1.52;;;;;;;11.68;59.47;98597.92;1758578;80;21701;-60
2021/05/06 04:39:15;;;;;;;2.12;1.72;;;;;;;11.81;59.18;98597.50;1758903;78;21602;-60
2021/05/06 04:41:52;;;;;;;4.83;1.70;;;;;;;11.91;58.91;98605.69;1759988;80;21617;-62
2021/05/06 04:55:26;;;;;;;2.33;2.08;;;;;;;12.36;58.12;98611.52;1776193;77;21628;-63
2021/05/06 05:05:54;;;;;;;5.15;1.98;;;;;;;12.46;57.18;98617.84;1752437;80;21588;-62
2021/05/06 05:08:25;;;;;;;3.47;2.42;;;;;;;12.43;57.25;98612.80;1803476;78;21954;-62
2021/05/06 05:26:48;;;;;;;;;;;;;;;12.44;57.35;98644.79;1764381;80;21636;-62
2021/05/06 05:29:22;;;;;;;4.28;2.15;;;;;;;12.40;57.72;98631.45;1763309;79;20235;-63
2021/05/06 05:31:51;;;;;;;4.28;2.00;;;;;;;12.45;57.85;98639.03;1796828;78;21549;-64
2021/05/06 05:34:28;;;;;;;4.58;1.90;;;;;;;12.45;58.10;98639.91;1753850;80;22094;-65
2021/05/06 05:36:53;;;;;;;4.17;1.90;;;;;;;12.49;58.32;98641.00;1745105;80;21179;-68
2021/05/06 05:39:35;;;;;;;3.65;1.92;;;;;;;12.61;57.78;98644.15;1729656;81;21788;-65
2021/05/06 17:54:01;;;;;;;5.83;1.80;;;;;;;11.09;37.43;99148.78;1816426;76;22855;-59
2021/05/06 17:56:30;;;;;;;2.22;1.60;;;;;;;11.09;37.80;99154.48;1800009;77;21484;-58
2021/05/06 17:58:58;;;;;;;5.37;2.40;;;;;;;11.15;37.95;99155.50;1817435;77;22023;-57
2021/05/06 18:01:31;;;;;;;3.75;1.70;;;;;;;11.17;38.13;99161.97;1797861;77;21637;-58
2021/05/06 18:03:57;;;;;;;4.08;2.10;;;;;;;11.18;38.23;99169.78;1807804;77;21580;-59
2021/05/06 18:06:25;;;;;;;3.52;2.15;;;;;;;11.15;38.37;99167.78;1738291;80;21311;-59
2021/05/06 18:08:55;;;;;;;3.22;2.02;;;;;;;11.15;38.38;99173.04;1744697;80;21729;-59
2021/05/06 18:13:53;;;;;;;7.80;2.08;;;;;;;11.13;38.52;99174.43;1748725;80;21501;-58
2021/05/06 18:16:21;;;;;;;2.75;1.77;;;;;;;11.16;38.55;99173.44;1726119;80;21529;-59
2021/05/06 18:18:52;;;;;;;5.58;2.12;;;;;;;11.16;38.67;99176.07;1740570;80;21130;-59
2021/05/06 18:21:35;;;;;;;4.78;2.08;;;;;;;11.22;38.45;99175.73;1576726;88;21169;-59
2021/05/06 18:24:26;;;;;;;4.17;1.92;;;;;;;11.23;38.27;99174.34;1578082;88;21897;-58
2021/05/06 18:26:56;;;;;;;7.45;2.25;;;;;;;11.23;38.48;99174.34;1539484;91;21643;-57
2021/05/06 18:29:24;;;;;;;7.50;2.00;;;;;;;11.24;38.49;99178.66;1531909;91;21743;-58
2021/05/06 18:31:54;;;;;;;9.73;2.20;;;;;;;11.23;38.44;99185.34;1533378;91;21677;-59
2021/05/06 18:34:23;;;;;;;2.92;2.17;;;;;;;11.23;38.15;99182.72;1513383;92;21830;-59
2021/05/06 18:36:53;;;;;;;4.67;1.87;;;;;;;11.22;38.43;99181.00;1513242;92;21723;-60
2021/05/06 18:39:22;;;;;;;3.15;1.42;;;;;;;11.16;38.55;99183.97;1505590;93;21199;-58
2021/05/06 18:41:50;;;;;;;4.03;1.57;;;;;;;11.18;38.50;99192.16;1531878;91;21317;-58
2021/05/06 18:44:19;;;;;;;3.72;1.35;;;;;;;11.20;38.35;99185.03;1533179;91;21705;-58
2021/05/06 18:46:49;;;;;;;5.25;1.77;;;;;;;11.18;38.46;99185.58;1655162;84;21540;-57
2021/05/06 18:49:22;;;;;;;7.87;2.00;;;;;;;11.19;38.23;99183.78;1665700;83;21856;-59
2021/05/06 18:51:53;;;;;;;5.40;1.70;;;;;;;11.29;37.85;99187.17;1672216;84;21674;-59
2021/05/06 18:54:24;;;;;;;4.42;1.95;;;;;;;11.28;37.96;99185.94;1673512;82;21484;-58
2021/05/06 18:56:55;;;;;;;2.77;1.62;;;;;;;11.32;37.68;99184.86;1615237;85;21118;-60
2021/05/06 18:59:25;;;;;;;5.35;2.20;;;;;;;11.35;37.48;99183.36;1615709;85;21705;-60
2021/05/06 19:01:58;;;;;;;5.22;1.67;;;;;;;11.37;37.42;99190.71;1639003;85;21518;-59
2021/05/06 19:04:33;;;;;;;2.58;1.77;;;;;;;11.36;37.48;99189.03;1639129;84;21713;-59
2021/05/06 19:07:25;;;;;;;6.20;2.52;;;;;;;11.38;37.45;99197.69;1638206;85;21630;-58
2021/05/06 19:09:54;;;;;;;8.60;2.10;;;;;;;11.35;37.52;99198.31;1688179;82;21745;-58
2021/05/06 19:12:25;;;;;;;4.08;1.82;;;;;;;11.31;37.69;99197.62;1691215;81;21238;-59
2021/05/06 19:15:16;;;;;;;2.80;1.37;;;;;;;11.36;37.28;99192.10;1687891;81;22070;-59
2021/05/06 19:17:46;;;;;;;2.30;1.70;;;;;;;11.26;37.79;99204.46;1597462;86;21694;-59
2021/05/06 19:20:40;;;;;;;5.75;2.00;;;;;;;11.23;37.66;99209.88;1631898;85;21775;-59
2021/05/06 19:23:34;;;;;;;4.83;1.85;;;;;;;11.13;38.01;99212.58;1620919;85;21677;-59
2021/05/06 19:26:25;;;;;;;2.55;2.00;;;;;;;11.08;38.28;99219.41;1625056;86;21509;-59
2021/05/06 19:28:53;;;;;;;5.12;2.10;;;;;;;11.02;38.38;99217.55;1569218;89;22121;-60
2021/05/06 19:31:21;;;;;;;3.12;2.20;;;;;;;10.95;38.56;99217.50;1610302;87;21186;-60
2021/05/06 19:33:50;;;;;;;5.60;2.55;;;;;;;10.91;38.60;99228.64;1587303;87;21678;-62
2021/05/06 19:36:19;;;;;;;6.05;2.60;;;;;;;10.85;38.66;99225.86;1579558;89;21611;-59
2021/05/06 19:38:46;;;;;;;5.78;3.12;;;;;;;10.83;38.62;99221.14;1579335;88;21606;-57
2021/05/06 19:41:16;;;;;;;5.03;2.90;;;;;;;10.77;38.75;99235.89;1589984;87;21908;-59
2021/05/06 19:43:47;;;;;;;3.87;2.92;;;;;;;10.75;38.67;99226.39;1611389;87;21781;-59
2021/05/06 19:49:26;;;;;;;10.03;4.45;;;;;;;10.67;38.99;99228.93;1695796;81;21124;-59
2021/05/06 19:51:56;;;;;;;;;;;;;;;10.67;38.97;99230.25;1699679;82;21522;-59
2021/05/06 19:54:27;;;;;;;7.87;3.60;;;;;;;10.62;38.99;99236.66;1696971;83;21788;-59
2021/05/06 19:57:05;;;;;;;9.48;5.15;;;;;;;10.57;39.26;99232.08;1692236;82;21641;-59
2021/05/06 19:59:40;;;;;;;10.05;5.42;;;;;;;10.52;39.47;99234.95;1669488;83;21712;-59
2021/05/06 20:02:10;;;;;;;8.93;5.28;;;;;;;10.48;39.53;99230.78;1702023;82;21208;-59
2021/05/06 20:04:38;;;;;;;9.58;5.92;;;;;;;10.41;39.64;99235.47;1688518;83;21622;-59
2021/05/06 20:07:11;;;;;;;10.80;7.00;;;;;;;10.35;39.74;99230.52;1694609;82;22028;-59
2021/05/06 20:09:41;;;;;;;12.40;6.97;;;;;;;10.33;39.78;99237.63;1698308;81;21204;-59
2021/05/06 20:12:09;;;;;;;9.43;6.05;;;;;;;10.27;39.89;99231.33;1695189;81;21591;-59
2021/05/06 20:14:41;;;;;;;11.22;6.30;;;;;;;10.24;39.90;99237.56;1694163;82;21631;-59
2021/05/06 20:17:15;;;;;;;15.00;7.05;;;;;;;10.19;39.97;99240.02;1679441;83;21510;-59
2021/05/06 20:22:46;;;;;;;11.30;5.80;;;;;;;10.17;40.00;99240.12;1848575;76;22891;-57
2021/05/06 20:25:14;;;;;;;12.90;7.00;;;;;;;10.06;40.30;99244.55;1784191;78;21596;-57
2021/05/06 20:27:43;;;;;;;12.33;7.30;;;;;;;9.99;40.48;99240.98;1781570;77;22048;-59
2021/05/06 20:30:14;;;;;;;11.35;6.97;;;;;;;9.94;40.36;99240.73;1786716;78;21647;-61
2021/05/06 20:32:58;;;;;;;;;;;;;;;;;;;;;
2021/05/06 20:35:24;;;;;;;11.97;6.97;;;;;;;9.97;40.30;99244.98;1814098;78;23208;-59
2021/05/06 20:37:55;;;;;;;17.57;7.03;;;;;;;9.93;40.21;99244.27;1789231;78;21516;-60
2021/05/06 20:40:24;;;;;;;14.45;8.08;;;;;;;9.96;40.27;99247.67;1754461;79;21900;-59
2021/05/06 20:43:00;;;;;;;;;;;;;;;9.91;40.19;99253.16;1770594;80;21564;-59
2021/05/06 20:45:31;;;;;;;15.35;7.90;;;;;;;9.91;39.89;99254.00;1752029;79;20502;-58
2021/05/06 20:48:00;;;;;;;15.18;8.30;;;;;;;9.86;40.13;99258.60;1759673;80;21486;-59
2021/05/06 20:50:29;;;;;;;14.03;8.25;;;;;;;9.87;40.14;99258.13;1765099;80;21575;-60
2021/05/06 20:53:21;;;;;;;18.17;8.35;;;;;;;9.86;40.21;99263.02;1746321;80;21912;-60
2021/05/06 20:55:52;;;;;;;15.78;7.35;;;;;;;9.87;40.18;99262.95;1712310;81;21619;-60
2021/05/06 20:58:20;;;;;;;12.93;7.08;;;;;;;9.82;40.39;99262.77;1710934;82;21217;-59
2021/05/06 21:00:50;;;;;;;12.18;7.78;;;;;;;9.79;40.41;99272.09;1731391;81;21611;-60
2021/05/06 21:03:20;;;;;;;12.55;7.28;;;;;;;9.75;40.55;99274.84;1732602;81;21535;-59
2021/05/06 21:05:52;;;;;;;17.45;8.03;;;;;;;9.71;40.64;99275.91;1713319;81;22242;-59
2021/05/06 21:08:20;;;;;;;9.95;6.75;;;;;;;9.66;40.48;99277.91;1733455;81;21556;-59
2021/05/06 21:10:50;;;;;;;12.00;7.90;;;;;;;9.66;40.62;99276.59;1717917;81;21177;-59
2021/05/06 21:13:19;;;;;;;13.80;7.60;;;;;;;9.68;40.33;99280.44;1735354;81;21601;-60
2021/05/06 21:15:48;;;;;;;15.00;7.55;;;;;;;9.68;40.34;99281.31;1740612;81;21476;-60
2021/05/06 21:18:16;;;;;;;14.10;7.53;;;;;;;9.73;40.05;99282.41;1727655;81;21583;-60
2021/05/06 21:20:44;;;;;;;14.95;6.97;;;;;;;9.72;40.08;99280.25;1729646;81;21615;-59
2021/05/06 21:23:36;;;;;;;14.43;8.08;;;;;;;9.71;40.05;99283.78;1731936;81;21600;-58
2021/05/06 21:26:03;;;;;;;12.35;7.25;;;;;;;9.75;39.86;99283.19;1707155;81;21612;-59
2021/05/06 21:28:31;;;;;;;12.93;8.10;;;;;;;9.69;40.04;99289.56;1715753;81;21615;-59
2021/05/06 21:30:59;;;;;;;16.95;7.58;;;;;;;9.72;39.94;99290.75;1719083;81;26910;-59
2021/05/06 21:33:27;;;;;;;13.08;6.85;;;;;;;9.73;39.69;99288.50;1720434;81;21654;-59
2021/05/06 21:35:56;;;;;;;11.40;6.87;;;;;;;9.72;39.78;99289.44;1708289;81;21591;-59
2021/05/06 21:38:24;;;;;;;12.20;7.03;;;;;;;9.70;39.88;99292.59;1717240;81;21151;-60
2021/05/06 21:40:51;;;;;;;;;;;;;;;9.66;39.97;99291.03;1711891;81;21659;-59
2021/05/06 21:43:20;;;;;;;13.93;7.50;;;;;;;9.65;39.90;99292.41;1718471;81;21851;-59
2021/05/06 21:45:48;;;;;;;13.35;7.08;;;;;;;9.59;39.81;99293.53;1725038;81;21600;-58
2021/05/06 21:48:16;;;;;;;13.08;7.17;;;;;;;9.55;40.18;99298.06;1718441;81;21600;-59
2021/05/06 21:50:44;;;;;;;12.05;7.12;;;;;;;9.58;40.14;99293.59;1710203;81;21723;-60
2021/05/06 21:53:13;;;;;;;14.00;7.15;;;;;;;9.51;40.23;99299.13;1717909;81;21616;-59
2021/05/06 21:55:41;;;;;;;11.70;7.30;;;;;;;9.51;40.26;99300.87;1713738;81;21860;-59
2021/05/06 21:58:31;;;;;;;12.00;8.25;;;;;;;9.50;40.19;99300.03;1679839;81;21608;-60
2021/05/06 22:00:59;;;;;;;12.25;7.12;;;;;;;9.48;40.22;99301.88;1684753;83;21557;-59
2021/05/06 22:03:27;;;;;;;14.75;7.80;;;;;;;9.44;40.20;99303.40;1685156;83;21667;-59
2021/05/06 22:05:55;;;;;;;12.80;7.25;;;;;;;9.49;40.01;99306.65;1686711;83;21497;-59
2021/05/06 22:08:24;;;;;;;11.12;7.67;;;;;;;9.47;40.04;99308.48;1683983;83;22083;-60
2021/05/06 22:10:52;;;;;;;16.27;9.25;;;;;;;9.40;40.29;99305.73;1684670;83;21237;-60
2021/05/06 22:13:20;;;;;;;16.20;8.70;;;;;;;9.35;40.13;99311.20;1695445;83;21695;-60
2021/05/06 22:15:49;;;;;;;12.35;9.10;;;;;;;9.37;40.26;99312.45;1694687;82;21567;-59
2021/05/06 22:18:19;;;;;;;12.82;7.92;;;;;;;9.40;39.74;99312.30;1620154;86;21741;-59
2021/05/06 22:20:53;;;;;;;15.72;7.42;;;;;;;9.40;39.62;99318.86;1684065;83;22079;-59
2021/05/06 22:23:44;;;;;;;11.57;7.35;;;;;;;9.45;39.80;99313.80;1657547;83;21558;-60
2021/05/06 22:26:12;;;;;;;17.57;7.53;;;;;;;9.41;40.01;99316.64;1675971;83;21708;-59
2021/05/06 22:28:42;;;;;;;12.15;6.75;;;;;;;9.37;40.19;99315.91;1712649;81;21476;-60
2021/05/06 22:31:10;;;;;;;8.63;5.90;;;;;;;9.34;39.98;99314.72;1705703;81;21491;-60
2021/05/06 22:33:39;;;;;;;11.18;6.40;;;;;;;9.33;40.06;99318.28;1715920;81;21940;-60
2021/05/06 22:36:08;;;;;;;9.00;5.83;;;;;;;9.36;39.87;99319.44;1714724;81;21623;-60
2021/05/06 22:38:37;;;;;;;9.70;6.10;;;;;;;9.39;39.70;99319.79;1707610;81;21709;-60
2021/05/06 22:41:05;;;;;;;;;;;;;;;9.35;40.05;99313.82;1729162;81;21673;-59
2021/05/06 22:43:55;;;;;;;8.43;5.65;;;;;;;9.31;40.06;99312.25;1715519;80;20622;-59
2021/05/06 22:46:24;;;;;;;8.68;5.50;;;;;;;9.27;40.21;99313.31;1630868;85;22059;-58
2021/05/06 22:48:52;;;;;;;11.20;5.85;;;;;;;9.25;40.24;99313.80;1614222;86;21667;-59
2021/05/06 22:51:21;;;;;;;10.32;5.00;;;;;;;9.27;39.98;99311.52;1621717;86;21192;-58
2021/05/06 22:53:49;;;;;;;8.98;5.62;;;;;;;9.27;40.17;99311.52;1620272;86;21196;-59
2021/05/06 22:56:16;;;;;;;12.13;4.95;;;;;;;9.26;40.09;99309.81;1625443;86;21641;-59
2021/05/06 22:58:44;;;;;;;;;;;;;;;9.23;39.92;99309.08;1631643;86;21743;-59
2021/05/06 23:01:12;;;;;;;7.83;4.60;;;;;;;9.19;39.78;99302.27;1622757;86;20523;-59
2021/05/06 23:03:41;;;;;;;7.72;4.40;;;;;;;9.16;39.61;99312.44;1622804;86;21522;-59
2021/05/06 23:06:22;;;;;;;7.60;3.98;;;;;;;9.22;39.50;99312.64;1627069;86;21147;-59
2021/05/06 23:08:54;;;;;;;5.83;4.35;;;;;;;9.31;39.16;99312.25;1638041;85;21102;-59
2021/05/06 23:11:21;;;;;;;6.97;4.30;;;;;;;9.34;39.05;99312.97;1633997;85;22087;-58
2021/05/06 23:13:51;;;;;;;6.42;3.60;;;;;;;9.38;39.06;99302.33;1636051;85;21579;-59
2021/05/06 23:16:18;;;;;;;;;;;;;;;9.36;39.00;99308.95;1644944;85;21611;-59
2021/05/06 23:18:47;;;;;;;7.58;4.58;;;;;;;9.30;39.59;99306.59;1638505;85;20300;-58
2021/05/06 23:21:15;;;;;;;12.23;5.25;;;;;;;9.20;39.96;99304.83;1638090;85;21631;-59
2021/05/06 23:23:43;;;;;;;11.75;5.05;;;;;;;9.12;40.34;99301.69;1630019;85;22011;-59
2021/05/06 23:26:14;;;;;;;7.78;4.40;;;;;;;9.08;40.57;99299.66;1663091;85;21674;-59
2021/05/06 23:28:43;;;;;;;12.18;4.92;;;;;;;9.07;40.78;99308.42;1641288;85;21635;-59
2021/05/06 23:31:11;;;;;;;9.35;5.45;;;;;;;9.01;40.77;99307.37;1649408;85;21695;-59
2021/05/06 23:33:39;;;;;;;;;;;;;;;8.95;40.93;99307.17;1629517;85;21533;-59
2021/05/06 23:36:07;;;;;;;9.25;5.00;;;;;;;8.88;40.98;99303.09;1647760;85;27126;-59
2021/05/06 23:38:38;;;;;;;10.80;4.65;;;;;;;8.79;41.14;99307.41;1585175;88;21599;-59
2021/05/06 23:41:06;;;;;;;9.73;4.05;;;;;;;8.75;41.26;99318.47;1591634;88;21628;-59
2021/05/06 23:43:36;;;;;;;7.67;4.35;;;;;;;8.71;41.38;99315.58;1622927;87;21592;-60
2021/05/06 23:46:03;;;;;;;10.38;4.70;;;;;;;8.67;41.51;99316.63;1613080;86;21644;-60
2021/05/06 23:48:33;;;;;;;9.70;4.83;;;;;;;8.65;41.60;99312.37;1584630;88;21657;-60
2021/05/06 23:51:01;;;;;;;9.05;5.17;;;;;;;8.58;41.68;99314.37;1615132;87;21534;-59
2021/05/06 23:53:31;;;;;;;9.83;5.15;;;;;;;8.56;41.81;99314.42;1585382;87;21609;-59
2021/05/06 23:55:59;;;;;;;8.10;5.25;;;;;;;8.50;41.92;99312.05;1625710;87;21665;-60
2021/05/06 23:58:33;;;;;;;8.08;4.67;;;;;;;8.47;42.02;99316.55;1637192;85;21584;-59
